createdAt,value
2019-01-26T12:09:03.818Z,97.5
2019-01-26T12:13:58.248Z,97.0
2019-01-26T12:18:57.164Z,97.40
2019-01-26T12:23:56.270Z,96.73
2019-01-26T12:28:55.447Z,94.65
2019-01-26T12:33:54.360Z,93.69
2019-01-26T12:38:55.317Z,92.49
2019-01-26T12:43:54.631Z,92.92
2019-01-26T12:48:54.265Z,93.23
2019-01-26T12:53:55.299Z,93.54
2019-01-26T12:58:54.642Z,93.73
2019-01-26T13:03:54.362Z,92.82
2019-01-26T13:08:53.375Z,92.73
2019-01-26T13:13:52.272Z,93.53
2019-01-26T13:18:52.275Z,93.61
2019-01-26T13:23:51.683Z,93.32
2019-01-26T13:28:52.260Z,91.84
2019-01-26T13:33:52.302Z,91.18
2019-01-26T13:38:51.297Z,90.44
2019-01-26T13:43:51.413Z,90.00
2019-01-26T13:48:51.502Z,90.86
2019-01-26T13:53:51.263Z,91.23
2019-01-26T13:58:51.282Z,91.94
2019-01-26T14:03:51.329Z,92.66
2019-01-26T14:08:52.461Z,92.29
2019-01-26T14:13:51.910Z,92.35
2019-01-26T14:18:51.289Z,91.89
2019-01-26T14:23:51.327Z,91.78
2019-01-26T14:28:50.729Z,91.39
2019-01-26T14:33:51.279Z,91.54
2019-01-26T14:38:50.261Z,91.21
2019-01-26T14:43:50.343Z,91.10
2019-01-26T14:48:49.318Z,91.35
2019-01-26T14:53:50.296Z,91.28
2019-01-26T14:58:50.277Z,92.12
2019-01-26T15:03:51.291Z,92.79
2019-01-26T15:08:51.475Z,92.76
2019-01-26T15:13:51.494Z,93.16
2019-01-26T15:18:51.520Z,93.14
2019-01-26T15:23:52.600Z,93.69
2019-01-26T15:28:51.507Z,93.99
2019-01-26T15:33:50.913Z,94.39
2019-01-26T15:38:50.582Z,95.05
2019-01-26T15:43:50.479Z,95.02
2019-01-26T15:48:49.516Z,94.98
2019-01-26T15:53:49.517Z,94.90
2019-01-26T15:58:48.827Z,94.37
2019-01-26T16:03:49.479Z,93.96
2019-01-26T16:08:49.491Z,94.34
2019-01-26T16:13:48.550Z,94.41
2019-01-26T16:18:47.539Z,94.00
2019-01-26T16:23:46.548Z,93.52
2019-01-26T16:28:46.552Z,93.58
2019-01-26T16:33:46.653Z,92.69
2019-01-26T16:38:45.942Z,92.24
2019-01-26T16:43:45.437Z,92.79
2019-01-26T16:48:45.441Z,92.73
2019-01-26T16:53:45.412Z,93.77
2019-01-26T16:58:45.445Z,94.49
2019-01-26T17:03:46.549Z,94.36
2019-01-26T17:08:45.474Z,95.01
2019-01-26T17:13:44.519Z,94.87
2019-01-26T17:18:46.233Z,95.20
2019-01-26T17:23:43.482Z,94.83
2019-01-26T17:28:43.523Z,94.68
2019-01-26T17:33:42.588Z,94.54
2019-01-26T17:38:42.528Z,94.81
2019-01-26T17:43:42.520Z,94.29
2019-01-26T17:48:42.617Z,94.45
2019-01-26T17:53:42.609Z,94.28
2019-01-26T17:58:41.728Z,94.31
2019-01-26T18:03:41.025Z,94.02
2019-01-26T18:08:40.537Z,94.09
2019-01-26T18:13:39.573Z,93.68
2019-01-26T18:18:40.533Z,93.87
2019-01-26T18:23:39.565Z,93.17
2019-01-26T18:28:39.542Z,93.58
2019-01-26T18:33:39.635Z,93.52
2019-01-26T18:38:39.562Z,93.74
2019-01-26T18:43:39.581Z,94.40
2019-01-26T18:48:38.565Z,95.00
2019-01-26T18:53:37.568Z,95.18
2019-01-26T18:58:37.574Z,95.52
2019-01-26T19:03:36.871Z,95.81
2019-01-26T19:08:36.194Z,95.69
2019-01-26T19:13:35.518Z,95.34
2019-01-26T19:18:36.569Z,94.61
2019-01-26T19:23:36.529Z,94.17
2019-01-26T19:28:36.580Z,94.17
2019-01-26T19:33:37.835Z,94.81
2019-01-26T19:38:37.826Z,94.70
2019-01-26T19:43:37.560Z,94.66
2019-01-26T19:48:37.146Z,93.53
2019-01-26T19:53:36.528Z,97.25
2019-01-26T19:58:37.619Z,98.21
2019-01-26T20:03:38.773Z,93.83
2019-01-26T20:08:38.563Z,91.75
2019-01-26T20:13:36.670Z,91.44
2019-01-26T20:18:35.625Z,90.25
2019-01-26T20:23:36.644Z,90.37
2019-01-26T20:28:37.577Z,90.44
2019-01-26T20:33:37.555Z,90.40
2019-01-26T20:38:37.555Z,90.53
2019-01-26T20:43:37.590Z,91.22
2019-01-26T20:48:37.591Z,90.77
2019-01-26T20:53:37.571Z,90.94
2019-01-26T20:58:37.582Z,91.95
2019-01-26T21:03:36.576Z,91.45
2019-01-26T21:08:36.587Z,91.26
2019-01-26T21:13:36.750Z,91.99
2019-01-26T21:18:36.164Z,92.06
2019-01-26T21:23:35.599Z,91.12
2019-01-26T21:28:34.925Z,90.87
2019-01-26T21:33:33.955Z,90.85
2019-01-26T21:38:32.963Z,89.89
2019-01-26T21:43:32.755Z,90.26
2019-01-26T21:48:33.634Z,89.76
2019-01-26T21:53:32.630Z,89.13
2019-01-26T21:58:32.624Z,89.07
2019-01-26T22:03:32.742Z,88.24
2019-01-26T22:08:32.659Z,88.82
2019-01-26T22:13:32.669Z,88.53
2019-01-26T22:18:32.064Z,89.06
2019-01-26T22:23:31.053Z,88.60
2019-01-26T22:28:30.579Z,89.70
2019-01-26T22:33:30.628Z,90.20
2019-01-26T22:38:30.586Z,89.23
2019-01-26T22:43:29.597Z,89.54
2019-01-26T22:48:28.583Z,88.58
2019-01-26T22:53:28.610Z,88.39
2019-01-26T22:58:29.591Z,88.68
2019-01-26T23:03:28.672Z,87.56
2019-01-26T23:08:28.645Z,88.29
2019-01-26T23:13:28.685Z,89.49
2019-01-26T23:18:27.866Z,88.23
2019-01-26T23:23:26.917Z,89.40
2019-01-26T23:28:22.760Z,89.65
2019-01-26T23:33:22.657Z,90.36
2019-01-26T23:38:23.709Z,90.25
2019-01-26T23:43:23.657Z,90.15
2019-01-26T23:48:23.604Z,89.95
2019-01-26T23:53:24.745Z,89.55
2019-01-26T23:58:25.603Z,89.70
